createdAt,value
2019-05-01T00:05:02.968Z,14.17
2019-05-01T00:10:11.032Z,15.03
2019-05-01T00:15:23.360Z,12.33
2019-05-01T00:20:30.773Z,18.83
2019-05-01T00:25:37.915Z,15.93
2019-05-01T00:30:45.301Z,15.37
2019-05-01T00:35:52.485Z,21.37
2019-05-01T00:41:01.096Z,14.73
2019-05-01T00:46:08.384Z,15.50
2019-05-01T00:51:15.475Z,16.60
2019-05-01T00:56:29.595Z,15.87
2019-05-01T01:01:58.691Z,17.40
2019-05-01T01:07:06.355Z,16.90
2019-05-01T01:12:13.661Z,19.73
2019-05-01T01:17:21.097Z,29.00
2019-05-01T01:22:28.271Z,22.05
2019-05-01T01:27:37.193Z,22.00
2019-05-01T01:32:44.671Z,19.03
2019-05-01T01:37:52.058Z,15.40
2019-05-01T01:43:20.024Z,17.27
2019-05-01T01:48:27.529Z,16.77
2019-05-01T01:53:35.214Z,15.80
2019-05-01T01:58:43.986Z,15.70
2019-05-01T02:03:55.636Z,14.67
2019-05-01T02:09:03.228Z,14.40
2019-05-01T02:14:11.957Z,16.17
2019-05-01T02:19:19.072Z,15.10
2019-05-01T02:24:26.344Z,14.77
2019-05-01T02:29:40.397Z,14.87
2019-05-01T02:34:50.198Z,13.70
2019-05-01T02:39:59.437Z,18.77
2019-05-01T02:45:07.913Z,14.60
2019-05-01T02:50:16.092Z,14.03
2019-05-01T02:55:29.436Z,14.20
2019-05-01T03:00:36.596Z,13.53
2019-05-01T03:05:44.159Z,16.20
2019-05-01T03:10:51.653Z,15.20
2019-05-01T03:16:00.428Z,14.10
2019-05-01T03:21:31.557Z,14.97
2019-05-01T03:26:38.807Z,13.70
2019-05-01T03:32:12.969Z,15.00
2019-05-01T03:36:55.088Z,13.83
2019-05-01T03:42:02.190Z,14.53
2019-05-01T03:47:09.485Z,13.80
2019-05-01T03:52:16.853Z,13.60
2019-05-01T03:57:24.310Z,11.83
2019-05-01T04:02:38.613Z,12.10
2019-05-01T04:07:46.273Z,13.90
2019-05-01T04:12:53.529Z,13.73
2019-05-01T04:18:03.099Z,12.07
2019-05-01T04:23:12.355Z,12.23
2019-05-01T04:28:32.222Z,12.30
2019-05-01T04:33:40.788Z,12.87
2019-05-01T04:38:48.386Z,13.13
2019-05-01T04:43:55.497Z,15.90
2019-05-01T04:49:03.194Z,14.93
2019-05-01T04:54:10.509Z,13.37
2019-05-01T04:59:17.886Z,14.07
2019-05-01T05:04:25.579Z,12.43
2019-05-01T05:09:58.300Z,13.10
2019-05-01T05:15:30.989Z,12.63
2019-05-01T05:20:38.465Z,15.23
2019-05-01T05:25:46.071Z,14.17
2019-05-01T05:30:54.774Z,10.87
2019-05-01T05:36:04.539Z,14.50
2019-05-01T05:41:12.551Z,9.83
2019-05-01T05:46:20.740Z,10.03
2019-05-01T05:51:40.228Z,9.63
2019-05-01T05:56:54.284Z,9.87
2019-05-01T06:02:26.640Z,7.73
2019-05-01T06:07:45.921Z,9.87
2019-05-01T06:13:12.209Z,7.92
2019-05-01T06:18:30.489Z,7.50
2019-05-01T06:23:45.665Z,8.43
2019-05-01T06:28:55.986Z,9.37
2019-05-01T06:34:03.519Z,6.53
2019-05-01T06:39:11.976Z,8.57
2019-05-01T06:44:39.874Z,5.57
2019-05-01T06:50:09.208Z,4.50
2019-05-01T06:55:16.244Z,5.50
2019-05-01T07:00:23.674Z,5.97
2019-05-01T07:05:31.587Z,7.37
2019-05-01T07:10:44.244Z,6.27
2019-05-01T07:15:47.671Z,5.67
2019-05-01T07:20:57.900Z,5.40
2019-05-01T07:26:10.033Z,3.90
2019-05-01T07:31:16.217Z,4.60
2019-05-01T07:36:23.401Z,3.30
2019-05-01T07:41:33.963Z,5.40
2019-05-01T07:47:02.890Z,11.37
2019-05-01T07:52:12.519Z,7.70
2019-05-01T07:57:22.758Z,5.27
2019-05-01T08:02:31.151Z,4.17
2019-05-01T08:07:38.008Z,5.63
2019-05-01T08:12:45.323Z,7.87
2019-05-01T08:17:54.340Z,4.27
2019-05-01T08:23:01.454Z,8.73
2019-05-01T08:28:16.959Z,30.40
2019-05-01T08:33:54.913Z,12.40
2019-05-01T08:39:04.984Z,6.27
2019-05-01T08:44:12.401Z,14.87
2019-05-01T08:49:50.894Z,7.47
2019-05-01T08:54:58.229Z,5.73
2019-05-01T09:00:06.420Z,6.73
2019-05-01T09:05:27.771Z,5.70
2019-05-01T09:10:23.270Z,6.47
2019-05-01T09:15:30.564Z,8.57
2019-05-01T09:20:39.359Z,6.27
2019-05-01T09:26:14.636Z,4.80
2019-05-01T09:31:21.487Z,5.83
2019-05-01T09:36:28.633Z,7.50
2019-05-01T09:41:38.275Z,7.60
2019-05-01T09:46:45.594Z,5.73
2019-05-01T09:52:23.541Z,4.00
2019-05-01T09:57:30.755Z,6.03
2019-05-01T10:02:42.083Z,6.60
2019-05-01T10:07:46.627Z,4.53
2019-05-01T10:12:53.642Z,6.53
2019-05-01T10:18:01.716Z,6.33
2019-05-01T10:23:13.233Z,4.57
2019-05-01T10:28:38.996Z,5.00
2019-05-01T10:33:47.872Z,4.40
2019-05-01T10:38:55.146Z,6.90
2019-05-01T10:44:02.129Z,10.00
2019-05-01T10:49:18.707Z,8.47
2019-05-01T10:54:30.630Z,10.23
2019-05-01T10:59:37.980Z,5.37
2019-05-01T11:04:45.302Z,5.23
2019-05-01T11:09:52.687Z,7.07
2019-05-01T11:14:59.752Z,5.80
2019-05-01T11:20:07.956Z,4.93
2019-05-01T11:25:18.405Z,8.08
2019-05-01T11:30:26.043Z,5.73
2019-05-01T11:36:02.979Z,4.80
2019-05-01T11:41:09.207Z,5.97
2019-05-01T11:46:16.696Z,5.03
2019-05-01T11:51:23.901Z,5.97
2019-05-01T11:56:31.019Z,7.07
2019-05-01T12:01:38.144Z,7.57
2019-05-01T12:06:45.704Z,4.87
2019-05-01T12:11:55.531Z,6.73
2019-05-01T12:17:27.831Z,5.37
2019-05-01T12:22:34.949Z,10.57
2019-05-01T12:27:42.955Z,4.53
2019-05-01T12:32:50.135Z,5.97
2019-05-01T12:37:59.841Z,6.63
2019-05-01T12:43:06.840Z,7.47
2019-05-01T12:48:14.097Z,6.47
2019-05-01T12:53:25.610Z,5.20
2019-05-01T12:58:33.059Z,9.53
2019-05-01T13:03:40.165Z,9.03
2019-05-01T13:08:47.373Z,11.30
2019-05-01T13:13:55.385Z,8.57
2019-05-01T13:19:02.454Z,10.63
2019-05-01T13:24:09.643Z,9.73
2019-05-01T13:29:35.810Z,11.23
2019-05-01T13:34:43.019Z,10.30
2019-05-01T13:39:50.448Z,10.03
2019-05-01T13:44:58.674Z,10.80
2019-05-01T13:50:07.278Z,11.20
2019-05-01T13:55:15.397Z,15.10
2019-05-01T14:00:23.494Z,17.40
2019-05-01T14:05:30.686Z,32.23
2019-05-01T14:10:37.762Z,41.13
2019-05-01T14:15:44.949Z,47.70
2019-05-01T14:21:11.410Z,48.90
2019-05-01T14:26:18.723Z,43.30
2019-05-01T14:31:26.765Z,42.70
2019-05-01T14:36:34.147Z,35.43
2019-05-01T14:41:41.156Z,30.20
2019-05-01T14:46:48.345Z,29.33
2019-05-01T14:51:55.451Z,36.17
2019-05-01T14:57:04.239Z,31.43
2019-05-01T15:02:11.398Z,35.33
2019-05-01T15:07:18.524Z,36.07
2019-05-01T15:12:25.660Z,38.77
2019-05-01T15:17:45.383Z,37.73
2019-05-01T15:22:52.579Z,38.97
2019-05-01T15:27:59.816Z,44.77
2019-05-01T15:33:06.963Z,36.70
2019-05-01T15:38:14.136Z,36.57
2019-05-01T15:43:30.173Z,31.97
2019-05-01T15:48:37.277Z,32.77
2019-05-01T15:53:45.061Z,29.07
2019-05-01T15:58:52.205Z,31.27
2019-05-01T16:04:11.571Z,31.73
2019-05-01T16:09:40.440Z,24.67
2019-05-01T16:14:57.724Z,32.47
2019-05-01T16:20:23.825Z,21.60
2019-05-01T16:25:37.993Z,27.37
2019-05-01T16:30:45.140Z,29.40
2019-05-01T16:35:52.455Z,24.67
2019-05-01T16:41:04.079Z,26.53
2019-05-01T16:46:11.126Z,27.10
2019-05-01T16:51:18.241Z,24.37
2019-05-01T16:56:25.308Z,22.80
2019-05-01T17:01:55.308Z,25.30
2019-05-01T17:07:24.359Z,25.23
2019-05-01T17:12:35.701Z,25.73
2019-05-01T17:17:43.825Z,41.40
2019-05-01T17:22:51.935Z,21.23
2019-05-01T17:28:02.752Z,22.77
2019-05-01T17:33:08.025Z,22.43
2019-05-01T17:38:15.155Z,34.17
2019-05-01T17:43:23.444Z,24.87
2019-05-01T17:48:33.601Z,20.80
2019-05-01T17:53:39.420Z,17.27
2019-05-01T17:58:46.480Z,30.40
2019-05-01T18:04:07.717Z,20.67
2019-05-01T18:09:15.783Z,18.90
2019-05-01T18:14:22.873Z,16.47
2019-05-01T18:19:30.185Z,20.60
2019-05-01T18:24:58.406Z,15.73
2019-05-01T18:30:09.552Z,29.10
2019-05-01T18:35:16.826Z,19.00
2019-05-01T18:40:34.038Z,14.07
2019-05-01T18:46:00.626Z,16.80
2019-05-01T18:51:07.781Z,14.60
2019-05-01T18:56:15.099Z,14.90
2019-05-01T19:01:22.415Z,13.80
2019-05-01T19:06:40.618Z,14.63
2019-05-01T19:11:38.960Z,17.07
2019-05-01T19:16:47.160Z,15.60
2019-05-01T19:21:54.457Z,15.57
2019-05-01T19:27:01.698Z,18.90
2019-05-01T19:32:08.957Z,16.57
2019-05-01T19:37:16.383Z,18.35
2019-05-01T19:42:24.838Z,20.73
2019-05-01T19:47:32.425Z,19.93
2019-05-01T19:52:40.557Z,20.17
2019-05-01T19:57:47.826Z,20.87
2019-05-01T20:02:59.051Z,26.37
2019-05-01T20:08:03.705Z,24.87
2019-05-01T20:13:12.040Z,23.07
2019-05-01T20:18:19.740Z,22.20
2019-05-01T20:23:31.495Z,24.20
2019-05-01T20:28:37.381Z,25.97
2019-05-01T20:33:44.742Z,24.07
2019-05-01T20:38:51.921Z,23.67
2019-05-01T20:43:59.028Z,26.77
2019-05-01T20:49:06.669Z,27.47
2019-05-01T20:54:14.031Z,27.27
2019-05-01T20:59:21.420Z,32.53
2019-05-01T21:04:50.935Z,38.20
2019-05-01T21:09:59.243Z,43.07
2019-05-01T21:15:06.488Z,42.77
2019-05-01T21:20:13.787Z,40.80
2019-05-01T21:25:21.275Z,41.93
2019-05-01T21:30:28.381Z,43.03
2019-05-01T21:35:35.329Z,41.87
2019-05-01T21:40:43.866Z,41.97
2019-05-01T21:45:53.039Z,42.60
2019-05-01T21:51:03.319Z,45.50
2019-05-01T21:56:08.737Z,46.35
2019-05-01T22:01:15.911Z,40.60
2019-05-01T22:06:23.198Z,40.88
2019-05-01T22:11:33.173Z,39.20
2019-05-01T22:16:40.623Z,40.60
2019-05-01T22:22:00.985Z,33.37
2019-05-01T22:27:11.770Z,36.93
2019-05-01T22:32:32.502Z,35.33
2019-05-01T22:37:40.210Z,34.10
2019-05-01T22:42:47.411Z,32.47
2019-05-01T22:47:54.475Z,34.70
2019-05-01T22:53:01.456Z,34.03
2019-05-01T22:58:08.785Z,31.00
2019-05-01T23:03:23.303Z,36.30
2019-05-01T23:08:30.489Z,30.97
2019-05-01T23:13:37.948Z,33.43
2019-05-01T23:18:46.968Z,30.57
2019-05-01T23:23:56.728Z,30.07
2019-05-01T23:29:02.845Z,30.52
2019-05-01T23:34:09.936Z,27.40
2019-05-01T23:39:16.982Z,29.27
2019-05-01T23:44:24.034Z,27.97
2019-05-01T23:49:31.087Z,29.23
2019-05-01T23:54:38.243Z,27.13
2019-05-01T23:59:45.623Z,23.80
